createdAt,value
2023-04-24T00:00:48.852Z,1.90
2023-04-24T00:03:21.432Z,1.90
2023-04-24T00:05:53.635Z,1.73
2023-04-24T00:08:28.919Z,1.40
2023-04-24T00:10:59.941Z,0.95
2023-04-24T00:13:31.520Z,1.05
2023-04-24T00:16:02.431Z,1.88
2023-04-24T00:18:33.899Z,1.65
2023-04-24T00:21:06.011Z,1.90
2023-04-24T00:23:36.934Z,1.75
2023-04-24T00:26:09.732Z,1.20
2023-04-24T00:28:41.394Z,1.35
2023-04-24T00:31:21.472Z,1.20
2023-04-24T00:33:54.913Z,1.08
2023-04-24T00:36:25.969Z,1.00
2023-04-24T00:39:07.245Z,1.45
2023-04-24T00:41:39.969Z,0.82
2023-04-24T00:44:17.423Z,0.90
2023-04-24T00:46:55.210Z,0.80
2023-04-24T00:49:26.312Z,1.02
2023-04-24T00:52:05.158Z,0.93
2023-04-24T00:54:36.802Z,0.80
2023-04-24T00:57:11.145Z,1.05
2023-04-24T01:05:30.666Z,0.82
2023-04-24T01:10:58.351Z,0.93
2023-04-24T01:13:39.706Z,1.27
2023-04-24T01:16:18.830Z,1.77
2023-04-24T01:18:59.773Z,0.70
2023-04-24T01:21:39.528Z,1.07
2023-04-24T01:24:10.954Z,0.60
2023-04-24T01:26:59.083Z,0.80
2023-04-24T01:29:34.826Z,0.45
2023-04-24T01:32:09.125Z,0.80
2023-04-24T01:34:42.378Z,0.75
2023-04-24T01:37:21.938Z,0.50
2023-04-24T01:42:40.220Z,0.70
2023-04-24T01:45:40.458Z,0.90
2023-04-24T01:48:15.417Z,0.40
2023-04-24T01:50:49.530Z,0.60
2023-04-24T01:56:16.836Z,1.13
2023-04-24T01:58:51.259Z,0.75
2023-04-24T02:01:26.618Z,0.40
2023-04-24T02:04:08.926Z,0.73
2023-04-24T02:06:44.328Z,0.57
2023-04-24T02:09:17.038Z,0.80
2023-04-24T02:11:47.301Z,0.55
2023-04-24T02:14:24.215Z,0.77
2023-04-24T02:16:59.506Z,0.60
2023-04-24T02:19:35.819Z,0.52
2023-04-24T02:22:13.516Z,0.55
2023-04-24T02:24:43.858Z,0.88
2023-04-24T02:27:23.669Z,0.95
2023-04-24T02:30:02.307Z,0.77
2023-04-24T02:32:33.530Z,0.70
2023-04-24T02:35:07.463Z,0.60
2023-04-24T02:37:46.546Z,1.50
2023-04-24T02:40:17.504Z,0.65
2023-04-24T02:42:48.261Z,0.60
2023-04-24T02:48:16.115Z,0.98
2023-04-24T02:50:51.869Z,0.63
2023-04-24T02:53:22.515Z,0.38
2023-04-24T02:55:53.272Z,0.82
2023-04-24T03:01:07.971Z,0.73
2023-04-24T03:06:34.428Z,0.50
2023-04-24T03:09:06.055Z,0.93
2023-04-24T03:11:36.861Z,1.00
2023-04-24T03:14:15.816Z,1.10
2023-04-24T03:16:49.373Z,0.68
2023-04-24T03:19:23.531Z,0.60
2023-04-24T03:22:08.991Z,0.45
2023-04-24T03:27:44.202Z,0.50
2023-04-24T03:30:26.407Z,0.55
2023-04-24T03:32:57.343Z,0.45
2023-04-24T03:35:27.880Z,0.52
2023-04-24T03:37:58.338Z,0.60
2023-04-24T03:40:40.192Z,0.82
2023-04-24T03:43:10.584Z,0.50
2023-04-24T03:45:57.571Z,0.50
2023-04-24T03:48:27.864Z,0.65
2023-04-24T03:50:58.844Z,1.02
2023-04-24T03:53:30.033Z,0.73
2023-04-24T03:56:00.561Z,0.93
2023-04-24T04:01:26.407Z,0.70
2023-04-24T04:04:08.230Z,0.65
2023-04-24T04:06:38.978Z,0.65
2023-04-24T04:09:11.303Z,0.70
2023-04-24T04:12:13.464Z,0.70
2023-04-24T04:15:04.021Z,0.88
2023-04-24T04:17:35.898Z,0.98
2023-04-24T04:20:13.065Z,0.50
2023-04-24T04:22:44.737Z,0.98
2023-04-24T04:25:17.638Z,0.80
2023-04-24T04:28:06.501Z,1.40
2023-04-24T04:30:44.387Z,0.77
2023-04-24T04:33:21.491Z,0.70
2023-04-24T04:38:32.624Z,0.63
2023-04-24T04:41:02.929Z,0.85
2023-04-24T04:43:33.732Z,0.50
2023-04-24T04:46:06.436Z,0.60
2023-04-24T04:48:37.156Z,0.60
2023-04-24T04:51:09.115Z,0.70
2023-04-24T04:53:40.661Z,0.80
2023-04-24T04:56:11.584Z,0.95
2023-04-24T04:58:42.227Z,1.08
2023-04-24T05:01:13.102Z,0.80
2023-04-24T05:03:44.062Z,1.10
2023-04-24T05:06:15.882Z,0.68
2023-04-24T05:08:46.738Z,1.15
2023-04-24T05:11:17.997Z,0.60
2023-04-24T05:13:58.712Z,0.68
2023-04-24T05:16:30.829Z,0.45
2023-04-24T05:19:01.749Z,0.70
2023-04-24T05:21:32.356Z,1.10
2023-04-24T05:24:03.121Z,0.63
2023-04-24T05:26:33.787Z,0.80
2023-04-24T05:29:08.752Z,0.82
2023-04-24T05:31:39.043Z,0.52
2023-04-24T05:34:09.767Z,0.68
2023-04-24T05:36:40.681Z,0.90
2023-04-24T05:39:11.718Z,0.70
2023-04-24T05:41:42.373Z,0.90
2023-04-24T05:44:13.587Z,0.50
2023-04-24T05:46:45.257Z,0.70
2023-04-24T05:49:16.320Z,1.20
2023-04-24T05:51:48.006Z,0.65
2023-04-24T05:54:19.627Z,0.82
2023-04-24T05:56:54.156Z,0.70
2023-04-24T05:59:25.976Z,0.60
2023-04-24T06:01:56.578Z,0.90
2023-04-24T06:04:38.002Z,0.70
2023-04-24T06:07:09.512Z,0.70
2023-04-24T06:09:40.492Z,0.90
2023-04-24T06:14:54.934Z,0.70
2023-04-24T06:17:25.984Z,0.80
2023-04-24T06:19:56.853Z,0.80
2023-04-24T06:22:27.789Z,0.80
2023-04-24T06:24:59.883Z,0.60
2023-04-24T06:27:33.389Z,0.63
2023-04-24T06:30:04.134Z,1.08
2023-04-24T06:32:35.231Z,0.55
2023-04-24T06:35:08.103Z,0.82
2023-04-24T06:37:39.031Z,0.80
2023-04-24T06:40:13.502Z,0.90
2023-04-24T06:42:44.237Z,0.95
2023-04-24T06:45:15.187Z,1.35
2023-04-24T06:47:45.842Z,0.80
2023-04-24T06:50:16.808Z,0.65
2023-04-24T06:52:51.986Z,0.70
2023-04-24T06:55:43.022Z,0.98
2023-04-24T07:01:10.277Z,1.40
2023-04-24T07:03:49.011Z,2.13
2023-04-24T07:06:51.283Z,1.30
2023-04-24T07:09:32.983Z,0.70
2023-04-24T07:12:20.042Z,0.90
2023-04-24T07:14:51.284Z,0.87
2023-04-24T07:29:52.835Z,1.45
2023-04-24T07:32:26.084Z,1.35
2023-04-24T07:34:56.702Z,1.58
2023-04-24T07:37:30.277Z,0.90
2023-04-24T07:40:01.574Z,1.52
2023-04-24T07:42:39.474Z,1.90
2023-04-24T07:45:11.789Z,1.35
2023-04-24T07:47:46.932Z,1.25
2023-04-24T07:50:20.194Z,1.77
2023-04-24T07:52:54.569Z,1.55
2023-04-24T07:55:27.897Z,1.10
2023-04-24T07:57:59.038Z,1.25
2023-04-24T08:00:31.560Z,0.75
2023-04-24T08:03:05.659Z,0.70
2023-04-24T08:05:45.099Z,0.75
2023-04-24T08:08:24.751Z,0.80
2023-04-24T08:11:10.245Z,0.63
2023-04-24T08:13:41.216Z,0.65
2023-04-24T08:16:17.266Z,1.10
2023-04-24T08:18:48.056Z,1.48
2023-04-24T08:21:29.015Z,0.63
2023-04-24T08:26:42.091Z,0.70
2023-04-24T08:29:13.001Z,1.02
2023-04-24T08:31:47.033Z,0.45
2023-04-24T08:34:17.349Z,0.70
2023-04-24T08:36:49.237Z,0.75
2023-04-24T08:39:20.969Z,0.60
2023-04-24T08:41:56.954Z,1.00
2023-04-24T08:44:27.864Z,0.65
2023-04-24T08:46:58.676Z,0.75
2023-04-24T08:49:31.840Z,0.95
2023-04-24T08:52:03.457Z,1.75
2023-04-24T08:54:34.778Z,1.50
2023-04-24T08:57:07.753Z,1.55
2023-04-24T08:59:43.607Z,1.08
2023-04-24T09:02:15.106Z,1.50
2023-04-24T09:04:48.115Z,1.40
2023-04-24T09:07:23.317Z,1.50
2023-04-24T09:09:55.646Z,1.52
2023-04-24T09:12:28.534Z,1.45
2023-04-24T09:15:00.384Z,1.55
2023-04-24T09:17:33.648Z,1.38
2023-04-24T09:20:08.762Z,0.90
2023-04-24T09:22:41.868Z,1.00
2023-04-24T09:25:15.744Z,0.98
2023-04-24T09:27:51.946Z,0.90
2023-04-24T09:30:29.440Z,1.10
2023-04-24T09:33:19.347Z,1.00
2023-04-24T09:35:56.451Z,1.30
2023-04-24T09:38:39.241Z,1.13
2023-04-24T09:41:14.032Z,1.00
2023-04-24T09:43:44.949Z,1.60
2023-04-24T09:46:16.607Z,1.27
2023-04-24T09:48:50.502Z,1.10
2023-04-24T09:51:36.447Z,1.27
2023-04-24T09:54:13.334Z,1.02
2023-04-24T09:59:22.908Z,1.00
2023-04-24T10:01:53.797Z,1.30
2023-04-24T10:04:27.509Z,0.80
2023-04-24T10:07:00.134Z,1.10
2023-04-24T10:09:32.306Z,0.85
2023-04-24T10:12:05.294Z,1.05
2023-04-24T10:14:36.225Z,0.95
2023-04-24T10:17:07.789Z,1.38
2023-04-24T10:19:39.223Z,0.75
2023-04-24T10:22:16.111Z,1.00
2023-04-24T10:27:19.569Z,1.20
2023-04-24T10:29:53.201Z,1.17
2023-04-24T10:32:24.086Z,1.58
2023-04-24T10:34:55.121Z,1.10
2023-04-24T10:37:32.303Z,1.08
2023-04-24T10:40:03.540Z,1.75
2023-04-24T10:42:35.395Z,1.50
2023-04-24T10:45:26.262Z,1.90
2023-04-24T10:48:19.319Z,1.30
2023-04-24T10:50:54.817Z,1.20
2023-04-24T10:53:29.876Z,1.40
2023-04-24T10:56:01.806Z,1.83
2023-04-24T10:58:47.598Z,1.08
2023-04-24T11:01:37.990Z,1.40
2023-04-24T11:04:08.870Z,1.20
2023-04-24T11:06:40.724Z,1.45
2023-04-24T11:09:17.026Z,1.40
2023-04-24T11:11:51.471Z,1.63
2023-04-24T11:14:23.396Z,1.40
2023-04-24T11:16:58.735Z,1.77
2023-04-24T11:19:37.531Z,1.30
2023-04-24T11:22:17.452Z,1.50
2023-04-24T11:24:52.545Z,1.52
2023-04-24T11:27:24.891Z,1.20
2023-04-24T11:30:03.048Z,1.50
2023-04-24T11:32:41.093Z,1.20
2023-04-24T11:35:28.855Z,1.10
2023-04-24T11:40:34.255Z,1.90
2023-04-24T11:43:07.619Z,2.53
2023-04-24T11:45:38.648Z,1.60
2023-04-24T11:48:09.385Z,2.05
2023-04-24T11:50:40.099Z,2.42
2023-04-24T11:53:11.089Z,1.48
2023-04-24T11:55:42.961Z,1.45
2023-04-24T11:58:15.658Z,1.73
2023-04-24T12:00:46.469Z,2.00
2023-04-24T12:03:18.604Z,1.77
2023-04-24T12:05:49.481Z,1.33
2023-04-24T12:08:37.845Z,1.80
2023-04-24T12:11:11.171Z,1.63
2023-04-24T12:13:42.185Z,1.35
2023-04-24T12:16:12.968Z,1.20
2023-04-24T12:18:53.303Z,1.58
2023-04-24T12:21:25.817Z,1.60
2023-04-24T12:23:59.257Z,1.25
2023-04-24T12:26:32.323Z,1.50
2023-04-24T12:29:08.618Z,1.40
2023-04-24T12:31:39.377Z,1.55
2023-04-24T12:34:25.333Z,1.40
2023-04-24T12:36:56.090Z,1.75
2023-04-24T12:39:29.745Z,1.67
2023-04-24T12:42:03.947Z,3.78
2023-04-24T12:44:40.685Z,3.15
2023-04-24T12:47:12.536Z,2.53
2023-04-24T12:49:44.536Z,3.05
2023-04-24T12:52:15.406Z,2.95
2023-04-24T12:54:46.112Z,3.35
2023-04-24T12:57:17.072Z,3.30
2023-04-24T12:59:48.787Z,3.22
2023-04-24T13:02:23.582Z,3.22
2023-04-24T13:04:55.570Z,2.70
2023-04-24T13:07:26.473Z,3.17
2023-04-24T13:09:58.417Z,3.05
2023-04-24T13:12:29.190Z,2.65
2023-04-24T13:14:59.513Z,3.33
2023-04-24T13:17:29.897Z,3.20
2023-04-24T13:20:00.238Z,2.80
2023-04-24T13:22:31.114Z,2.30
2023-04-24T13:25:04.328Z,2.22
2023-04-24T13:27:36.246Z,3.10
2023-04-24T13:30:08.880Z,2.60
2023-04-24T13:32:41.603Z,2.35
2023-04-24T13:35:12.768Z,2.58
2023-04-24T13:37:43.900Z,2.05
2023-04-24T13:40:15.008Z,2.10
2023-04-24T13:42:46.451Z,2.10
2023-04-24T13:45:24.721Z,2.13
2023-04-24T13:48:00.390Z,2.05
2023-04-24T13:50:31.128Z,2.47
2023-04-24T13:53:03.278Z,2.05
2023-04-24T13:55:34.078Z,2.28
2023-04-24T13:58:04.320Z,2.58
2023-04-24T14:00:35.263Z,1.73
2023-04-24T14:03:05.868Z,2.65
2023-04-24T14:05:37.783Z,3.50
2023-04-24T14:08:09.134Z,2.65
2023-04-24T14:10:40.213Z,2.30
2023-04-24T14:13:10.876Z,2.55
2023-04-24T14:15:41.698Z,2.50
2023-04-24T14:18:12.765Z,2.45
2023-04-24T14:20:43.989Z,2.38
2023-04-24T14:23:15.730Z,2.58
2023-04-24T14:25:49.480Z,2.83
2023-04-24T14:28:20.639Z,1.90
2023-04-24T14:30:51.624Z,2.17
2023-04-24T14:33:22.913Z,2.45
2023-04-24T14:35:53.728Z,2.72
2023-04-24T14:38:25.784Z,2.00
2023-04-24T14:41:06.460Z,2.03
2023-04-24T14:43:38.800Z,2.20
2023-04-24T14:46:09.265Z,2.20
2023-04-24T14:48:40.048Z,2.35
2023-04-24T14:51:11.169Z,1.85
2023-04-24T14:53:41.408Z,1.80
2023-04-24T14:56:11.854Z,2.03
2023-04-24T14:58:42.312Z,1.85
2023-04-24T15:01:12.833Z,1.92
2023-04-24T15:03:43.793Z,2.40
2023-04-24T15:06:14.382Z,2.17
2023-04-24T15:08:46.934Z,2.15
2023-04-24T15:11:19.478Z,1.80
2023-04-24T15:13:50.238Z,3.53
2023-04-24T15:16:22.871Z,2.35
2023-04-24T15:18:53.628Z,2.47
2023-04-24T15:21:24.257Z,2.35
2023-04-24T15:23:55.102Z,2.40
2023-04-24T15:26:29.457Z,2.78
2023-04-24T15:29:00.214Z,2.30
2023-04-24T15:31:32.139Z,2.25
2023-04-24T15:34:04.901Z,2.53
2023-04-24T15:36:35.772Z,2.22
2023-04-24T15:39:08.435Z,2.20
2023-04-24T15:41:40.625Z,2.63
2023-04-24T15:44:13.502Z,3.28
2023-04-24T15:46:45.644Z,2.60
2023-04-24T15:49:16.236Z,2.75
2023-04-24T15:51:47.199Z,2.83
2023-04-24T15:54:18.050Z,2.33
2023-04-24T15:56:49.782Z,2.13
2023-04-24T15:59:21.287Z,2.08
2023-04-24T16:01:53.053Z,2.30
2023-04-24T16:04:25.160Z,3.00
2023-04-24T16:06:56.470Z,2.38
2023-04-24T16:09:28.008Z,1.85
2023-04-24T16:11:58.861Z,2.10
2023-04-24T16:14:30.229Z,1.77
2023-04-24T16:17:03.254Z,5.35
2023-04-24T16:19:36.181Z,6.38
2023-04-24T16:22:09.005Z,8.85
2023-04-24T16:24:39.719Z,6.63
2023-04-24T16:27:10.407Z,4.50
2023-04-24T16:29:41.192Z,4.82
2023-04-24T16:32:14.452Z,4.28
2023-04-24T16:34:45.570Z,3.80
2023-04-24T16:37:16.943Z,4.10
2023-04-24T16:39:47.857Z,3.67
2023-04-24T16:42:20.550Z,2.95
2023-04-24T16:44:51.178Z,3.10
2023-04-24T16:47:22.549Z,2.40
2023-04-24T16:49:53.686Z,2.88
2023-04-24T16:52:24.399Z,2.75
2023-04-24T16:54:56.104Z,2.60
2023-04-24T16:57:27.135Z,2.53
2023-04-24T16:59:58.076Z,1.77
2023-04-24T17:02:29.244Z,2.90
2023-04-24T17:05:01.319Z,2.72
2023-04-24T17:07:33.148Z,2.25
2023-04-24T17:10:03.912Z,2.53
2023-04-24T17:12:34.591Z,2.70
2023-04-24T17:15:07.845Z,2.10
2023-04-24T17:17:39.233Z,2.30
2023-04-24T17:20:21.381Z,2.42
2023-04-24T17:22:54.142Z,2.50
2023-04-24T17:25:26.005Z,2.15
2023-04-24T17:27:58.464Z,2.45
2023-04-24T17:30:29.084Z,2.15
2023-04-24T17:32:59.868Z,2.28
2023-04-24T17:35:31.221Z,1.80
2023-04-24T17:38:03.302Z,2.47
2023-04-24T17:40:33.956Z,2.97
2023-04-24T17:43:08.116Z,2.78
2023-04-24T17:45:39.683Z,2.35
2023-04-24T17:48:10.985Z,2.65
2023-04-24T17:50:41.808Z,2.30
2023-04-24T17:53:16.111Z,2.80
2023-04-24T17:55:48.382Z,2.05
2023-04-24T17:58:21.135Z,2.30
2023-04-24T18:00:53.421Z,2.80
2023-04-24T18:03:24.285Z,2.58
2023-04-24T18:05:55.140Z,2.53
2023-04-24T18:08:35.111Z,3.50
2023-04-24T18:11:07.541Z,2.20
2023-04-24T18:13:38.885Z,1.90
2023-04-24T18:16:11.417Z,2.55
2023-04-24T18:18:42.667Z,2.05
2023-04-24T18:21:13.618Z,2.05
2023-04-24T18:23:44.692Z,1.90
2023-04-24T18:26:20.407Z,2.42
2023-04-24T18:28:51.510Z,2.30
2023-04-24T18:31:23.836Z,3.17
2023-04-24T18:33:56.446Z,2.33
2023-04-24T18:36:28.014Z,1.77
2023-04-24T18:38:59.153Z,2.00
2023-04-24T18:41:30.746Z,2.47
2023-04-24T18:44:01.480Z,2.20
2023-04-24T18:46:33.364Z,1.88
2023-04-24T18:49:04.002Z,1.85
2023-04-24T18:51:46.484Z,1.73
2023-04-24T18:54:22.380Z,2.08
2023-04-24T18:56:53.750Z,1.92
2023-04-24T18:59:24.716Z,1.75
2023-04-24T19:01:55.543Z,1.85
2023-04-24T19:04:26.344Z,1.92
2023-04-24T19:06:57.160Z,2.42
2023-04-24T19:09:27.910Z,2.53
2023-04-24T19:11:58.687Z,2.60
2023-04-24T19:14:30.660Z,1.40
2023-04-24T19:17:05.734Z,2.33
2023-04-24T19:19:36.399Z,1.73
2023-04-24T19:22:07.444Z,1.40
2023-04-24T19:24:38.240Z,1.40
2023-04-24T19:27:08.856Z,1.80
2023-04-24T19:29:39.736Z,1.35
2023-04-24T19:32:10.985Z,1.45
2023-04-24T19:34:41.696Z,1.20
2023-04-24T19:37:12.578Z,1.67
2023-04-24T19:39:43.741Z,1.48
2023-04-24T19:42:14.315Z,1.10
2023-04-24T19:44:45.643Z,1.40
2023-04-24T19:47:16.512Z,2.35
2023-04-24T19:49:47.331Z,1.60
2023-04-24T19:52:18.493Z,1.50
2023-04-24T19:54:49.326Z,1.60
2023-04-24T19:57:20.907Z,2.13
2023-04-24T19:59:51.885Z,1.90
2023-04-24T20:02:22.799Z,2.92
2023-04-24T20:04:54.195Z,2.22
2023-04-24T20:07:25.189Z,2.15
2023-04-24T20:09:56.204Z,3.03
2023-04-24T20:12:27.018Z,2.13
2023-04-24T20:14:57.399Z,2.70
2023-04-24T20:17:28.553Z,2.60
2023-04-24T20:20:00.506Z,2.63
2023-04-24T20:22:32.809Z,2.17
2023-04-24T20:25:05.202Z,2.35
2023-04-24T20:27:35.980Z,2.30
2023-04-24T20:30:09.175Z,2.03
2023-04-24T20:32:40.899Z,2.15
2023-04-24T20:35:13.106Z,1.50
2023-04-24T20:37:43.911Z,1.88
2023-04-24T20:40:16.282Z,1.90
2023-04-24T20:42:48.477Z,1.90
2023-04-24T20:45:21.789Z,2.25
2023-04-24T20:47:53.029Z,2.33
2023-04-24T20:50:25.230Z,2.40
2023-04-24T20:52:56.197Z,2.08
2023-04-24T20:55:29.004Z,2.30
2023-04-24T20:57:59.694Z,2.40
2023-04-24T21:00:31.462Z,3.10
2023-04-24T21:03:02.246Z,1.63
2023-04-24T21:05:33.263Z,1.80
2023-04-24T21:08:04.164Z,1.95
2023-04-24T21:10:35.128Z,2.15
2023-04-24T21:13:06.063Z,1.90
2023-04-24T21:15:37.633Z,1.98
2023-04-24T21:18:08.738Z,2.05
2023-04-24T21:20:39.650Z,2.20
2023-04-24T21:23:11.314Z,1.77
2023-04-24T21:25:43.661Z,1.85
2023-04-24T21:28:14.493Z,2.50
2023-04-24T21:30:46.309Z,1.98
2023-04-24T21:33:16.965Z,1.42
2023-04-24T21:35:48.808Z,1.45
2023-04-24T21:38:28.366Z,1.33
2023-04-24T21:40:59.348Z,1.48
2023-04-24T21:43:43.485Z,1.80
2023-04-24T21:46:15.708Z,1.73
2023-04-24T21:48:48.048Z,1.65
2023-04-24T21:51:20.505Z,1.17
2023-04-24T21:53:51.611Z,1.77
2023-04-24T21:56:23.286Z,1.98
2023-04-24T21:58:56.096Z,1.75
2023-04-24T22:01:27.279Z,1.98
2023-04-24T22:03:58.157Z,1.80
2023-04-24T22:06:29.752Z,1.73
2023-04-24T22:09:01.633Z,2.20
2023-04-24T22:11:32.702Z,1.70
2023-04-24T22:14:05.503Z,2.17
2023-04-24T22:16:38.581Z,1.92
2023-04-24T22:19:10.670Z,2.08
2023-04-24T22:21:43.149Z,2.20
2023-04-24T22:24:14.811Z,1.67
2023-04-24T22:26:46.448Z,1.80
2023-04-24T22:29:17.292Z,1.92
2023-04-24T22:31:49.204Z,1.45
2023-04-24T22:34:20.562Z,1.85
2023-04-24T22:36:51.252Z,2.13
2023-04-24T22:39:22.378Z,2.38
2023-04-24T22:41:53.544Z,2.00
2023-04-24T22:44:24.746Z,2.05
2023-04-24T22:46:57.765Z,1.92
2023-04-24T22:49:29.275Z,2.70
2023-04-24T22:52:00.438Z,2.17
2023-04-24T22:54:31.101Z,1.70
2023-04-24T22:57:02.036Z,2.15
2023-04-24T22:59:32.837Z,1.88
2023-04-24T23:02:04.778Z,2.00
2023-04-24T23:04:36.358Z,2.75
2023-04-24T23:07:07.632Z,1.30
2023-04-24T23:09:39.282Z,1.85
2023-04-24T23:12:10.353Z,2.00
2023-04-24T23:14:43.466Z,1.48
2023-04-24T23:17:15.882Z,2.42
2023-04-24T23:19:46.502Z,2.50
2023-04-24T23:22:18.176Z,2.13
2023-04-24T23:24:49.234Z,2.03
2023-04-24T23:27:20.438Z,2.20
2023-04-24T23:29:51.373Z,1.55
2023-04-24T23:32:22.383Z,1.75
2023-04-24T23:34:53.372Z,2.03
2023-04-24T23:37:24.509Z,1.52
2023-04-24T23:39:56.961Z,2.10
2023-04-24T23:42:27.999Z,1.15
2023-04-24T23:44:58.252Z,1.52
2023-04-24T23:47:29.448Z,1.67
2023-04-24T23:50:00.320Z,1.75
2023-04-24T23:52:31.220Z,1.40
2023-04-24T23:55:02.007Z,1.40
2023-04-24T23:57:33.226Z,1.50
